sensor_id;sensor_type;location;lat;lon;timestamp;pressure;altitude;pressure_sealevel;temperature;humidity
76205;BME280;64986;55.672;37.628;2023-02-28T00:00:48;99991.97;;;-7.56;76.06
76205;BME280;64986;55.672;37.628;2023-02-28T00:03:14;99984.47;;;-7.76;77.97
76205;BME280;64986;55.672;37.628;2023-02-28T00:05:40;99983.03;;;-7.64;76.92
76205;BME280;64986;55.672;37.628;2023-02-28T00:08:07;99981.00;;;-7.58;75.21
76205;BME280;64986;55.672;37.628;2023-02-28T00:10:33;99981.53;;;-7.68;75.56
76205;BME280;64986;55.672;37.628;2023-02-28T00:13:01;99962.53;;;-7.63;75.80
76205;BME280;64986;55.672;37.628;2023-02-28T00:15:27;99972.28;;;-7.53;76.00
76205;BME280;64986;55.672;37.628;2023-02-28T00:17:53;99969.88;;;-7.74;75.76
76205;BME280;64986;55.672;37.628;2023-02-28T00:20:19;99973.19;;;-7.72;76.60
76205;BME280;64986;55.672;37.628;2023-02-28T00:22:49;99970.06;;;-7.77;76.07
76205;BME280;64986;55.672;37.628;2023-02-28T00:25:18;99958.84;;;-7.74;76.07
76205;BME280;64986;55.672;37.628;2023-02-28T00:27:44;99954.56;;;-7.74;75.68
76205;BME280;64986;55.672;37.628;2023-02-28T00:30:13;99952.78;;;-7.89;76.81
76205;BME280;64986;55.672;37.628;2023-02-28T00:32:39;99956.97;;;-7.88;76.43
76205;BME280;64986;55.672;37.628;2023-02-28T00:35:05;99938.00;;;-7.67;75.09
76205;BME280;64986;55.672;37.628;2023-02-28T00:37:31;99953.63;;;-8.06;77.43
76205;BME280;64986;55.672;37.628;2023-02-28T00:39:57;99960.16;;;-8.00;76.76
76205;BME280;64986;55.672;37.628;2023-02-28T00:42:23;99957.53;;;-7.99;77.51
76205;BME280;64986;55.672;37.628;2023-02-28T00:44:48;99956.00;;;-8.03;76.02
76205;BME280;64986;55.672;37.628;2023-02-28T00:47:14;99949.25;;;-8.04;76.21
76205;BME280;64986;55.672;37.628;2023-02-28T00:49:40;99944.66;;;-7.97;75.91
76205;BME280;64986;55.672;37.628;2023-02-28T00:52:05;99935.44;;;-8.17;75.50
76205;BME280;64986;55.672;37.628;2023-02-28T00:54:31;99934.91;;;-8.24;76.48
76205;BME280;64986;55.672;37.628;2023-02-28T00:56:56;99922.00;;;-8.21;76.41
76205;BME280;64986;55.672;37.628;2023-02-28T00:59:22;99922.81;;;-8.20;76.88
76205;BME280;64986;55.672;37.628;2023-02-28T01:01:47;99926.66;;;-8.29;77.00
76205;BME280;64986;55.672;37.628;2023-02-28T01:04:13;99926.38;;;-8.23;76.36
76205;BME280;64986;55.672;37.628;2023-02-28T01:06:39;99914.63;;;-8.27;76.44
76205;BME280;64986;55.672;37.628;2023-02-28T01:09:06;99909.00;;;-8.33;76.76
76205;BME280;64986;55.672;37.628;2023-02-28T01:11:32;99925.75;;;-8.28;77.21
76205;BME280;64986;55.672;37.628;2023-02-28T01:13:58;99912.81;;;-8.25;76.98
76205;BME280;64986;55.672;37.628;2023-02-28T01:16:24;99933.16;;;-7.89;76.02
76205;BME280;64986;55.672;37.628;2023-02-28T01:18:50;99913.97;;;-8.13;75.81
76205;BME280;64986;55.672;37.628;2023-02-28T01:21:18;99889.84;;;-8.25;75.96
76205;BME280;64986;55.672;37.628;2023-02-28T01:23:45;99904.91;;;-8.53;77.41
76205;BME280;64986;55.672;37.628;2023-02-28T01:26:17;99879.59;;;-8.41;76.56
76205;BME280;64986;55.672;37.628;2023-02-28T01:28:42;99869.22;;;-8.55;76.92
76205;BME280;64986;55.672;37.628;2023-02-28T01:31:09;99879.75;;;-8.44;77.20
76205;BME280;64986;55.672;37.628;2023-02-28T01:33:35;99870.97;;;-8.38;76.71
76205;BME280;64986;55.672;37.628;2023-02-28T01:36:05;99853.25;;;-8.41;76.42
76205;BME280;64986;55.672;37.628;2023-02-28T01:38:33;99862.03;;;-8.47;77.32
76205;BME280;64986;55.672;37.628;2023-02-28T01:40:59;99856.19;;;-8.49;76.72
76205;BME280;64986;55.672;37.628;2023-02-28T01:43:28;99853.00;;;-8.54;77.66
76205;BME280;64986;55.672;37.628;2023-02-28T01:45:55;99849.59;;;-8.53;78.09
76205;BME280;64986;55.672;37.628;2023-02-28T01:48:30;99856.72;;;-8.42;77.02
76205;BME280;64986;55.672;37.628;2023-02-28T01:51:02;99858.28;;;-8.57;77.95
76205;BME280;64986;55.672;37.628;2023-02-28T01:53:35;99842.97;;;-8.57;77.74
76205;BME280;64986;55.672;37.628;2023-02-28T01:56:04;99823.69;;;-8.62;77.93
76205;BME280;64986;55.672;37.628;2023-02-28T01:58:31;99827.72;;;-8.41;77.71
76205;BME280;64986;55.672;37.628;2023-02-28T02:00:57;99816.63;;;-8.57;78.30
76205;BME280;64986;55.672;37.628;2023-02-28T02:03:23;99822.69;;;-8.77;78.93
76205;BME280;64986;55.672;37.628;2023-02-28T02:05:49;99825.31;;;-8.79;78.84
76205;BME280;64986;55.672;37.628;2023-02-28T02:08:23;99827.44;;;-8.70;79.34
76205;BME280;64986;55.672;37.628;2023-02-28T02:10:54;99823.22;;;-8.71;79.02
76205;BME280;64986;55.672;37.628;2023-02-28T02:13:47;99820.53;;;-8.68;78.80
76205;BME280;64986;55.672;37.628;2023-02-28T02:35:55;99787.97;;;-8.62;78.13
76205;BME280;64986;55.672;37.628;2023-02-28T02:41:22;99783.47;;;-8.57;77.90
76205;BME280;64986;55.672;37.628;2023-02-28T02:43:56;99767.66;;;-8.81;79.40
76205;BME280;64986;55.672;37.628;2023-02-28T02:46:31;99772.78;;;-8.48;77.67
76205;BME280;64986;55.672;37.628;2023-02-28T02:49:00;99762.66;;;-8.50;77.84
76205;BME280;64986;55.672;37.628;2023-02-28T02:51:30;99787.72;;;-8.41;78.34
76205;BME280;64986;55.672;37.628;2023-02-28T02:54:19;99767.22;;;-8.39;78.21
76205;BME280;64986;55.672;37.628;2023-02-28T02:56:47;99757.72;;;-8.53;78.00
76205;BME280;64986;55.672;37.628;2023-02-28T02:59:16;99747.56;;;-8.54;78.19
76205;BME280;64986;55.672;37.628;2023-02-28T03:01:52;99753.22;;;-8.65;78.94
76205;BME280;64986;55.672;37.628;2023-02-28T03:04:21;99731.59;;;-8.58;78.54
76205;BME280;64986;55.672;37.628;2023-02-28T03:06:48;99740.94;;;-8.41;77.41
76205;BME280;64986;55.672;37.628;2023-02-28T03:09:13;99729.66;;;-8.53;78.85
76205;BME280;64986;55.672;37.628;2023-02-28T03:11:39;99723.78;;;-8.55;77.81
76205;BME280;64986;55.672;37.628;2023-02-28T03:27:09;99711.91;;;-8.38;77.44
76205;BME280;64986;55.672;37.628;2023-02-28T03:29:49;99689.91;;;-8.41;77.64
76205;BME280;64986;55.672;37.628;2023-02-28T03:32:43;99687.19;;;-8.38;77.32
76205;BME280;64986;55.672;37.628;2023-02-28T03:35:11;99687.59;;;-8.46;77.09
76205;BME280;64986;55.672;37.628;2023-02-28T03:37:41;99678.44;;;-8.50;77.55
76205;BME280;64986;55.672;37.628;2023-02-28T03:40:17;99682.84;;;-8.36;77.55
76205;BME280;64986;55.672;37.628;2023-02-28T03:42:48;99675.06;;;-8.50;77.30
76205;BME280;64986;55.672;37.628;2023-02-28T03:45:16;99661.25;;;-8.46;77.75
76205;BME280;64986;55.672;37.628;2023-02-28T03:47:52;99663.69;;;-8.29;76.73
76205;BME280;64986;55.672;37.628;2023-02-28T03:50:20;99660.25;;;-8.44;76.87
76205;BME280;64986;55.672;37.628;2023-02-28T03:52:50;99648.63;;;-8.18;76.32
76205;BME280;64986;55.672;37.628;2023-02-28T03:55:17;99638.41;;;-8.18;75.65
76205;BME280;64986;55.672;37.628;2023-02-28T03:57:54;99639.81;;;-8.28;75.92
76205;BME280;64986;55.672;37.628;2023-02-28T04:00:30;99648.22;;;-8.26;76.44
76205;BME280;64986;55.672;37.628;2023-02-28T04:02:58;99630.25;;;-8.24;76.14
76205;BME280;64986;55.672;37.628;2023-02-28T04:05:24;99646.56;;;-8.27;76.54
76205;BME280;64986;55.672;37.628;2023-02-28T04:07:50;99621.94;;;-8.28;75.69
76205;BME280;64986;55.672;37.628;2023-02-28T04:10:16;99621.31;;;-8.16;75.85
76205;BME280;64986;55.672;37.628;2023-02-28T04:12:42;99619.06;;;-8.06;75.89
76205;BME280;64986;55.672;37.628;2023-02-28T04:15:08;99609.81;;;-8.08;75.79
76205;BME280;64986;55.672;37.628;2023-02-28T04:17:33;99599.63;;;-8.24;75.88
76205;BME280;64986;55.672;37.628;2023-02-28T04:19:59;99609.00;;;-8.25;75.61
76205;BME280;64986;55.672;37.628;2023-02-28T04:22:24;99604.41;;;-8.18;75.98
76205;BME280;64986;55.672;37.628;2023-02-28T04:24:53;99600.09;;;-8.18;75.14
76205;BME280;64986;55.672;37.628;2023-02-28T04:27:20;99611.56;;;-8.25;76.11
76205;BME280;64986;55.672;37.628;2023-02-28T04:29:46;99613.00;;;-7.89;73.94
76205;BME280;64986;55.672;37.628;2023-02-28T04:32:12;99608.16;;;-8.10;74.64
76205;BME280;64986;55.672;37.628;2023-02-28T04:34:38;99608.66;;;-8.03;74.94
76205;BME280;64986;55.672;37.628;2023-02-28T04:37:03;99601.09;;;-8.20;74.91
76205;BME280;64986;55.672;37.628;2023-02-28T04:39:29;99598.31;;;-8.16;75.13
76205;BME280;64986;55.672;37.628;2023-02-28T04:41:55;99589.69;;;-7.83;73.81
76205;BME280;64986;55.672;37.628;2023-02-28T04:44:21;99590.34;;;-7.95;73.81
76205;BME280;64986;55.672;37.628;2023-02-28T04:46:48;99578.94;;;-8.04;74.03
76205;BME280;64986;55.672;37.628;2023-02-28T04:49:14;99575.03;;;-7.95;74.16
76205;BME280;64986;55.672;37.628;2023-02-28T04:51:40;99583.09;;;-7.87;74.48
76205;BME280;64986;55.672;37.628;2023-02-28T04:54:07;99566.47;;;-7.94;73.65
76205;BME280;64986;55.672;37.628;2023-02-28T04:56:32;99548.84;;;-7.99;74.05
76205;BME280;64986;55.672;37.628;2023-02-28T04:58:58;99549.38;;;-7.64;73.66
76205;BME280;64986;55.672;37.628;2023-02-28T05:01:47;99559.59;;;-7.78;72.72
76205;BME280;64986;55.672;37.628;2023-02-28T05:04:12;99552.44;;;-7.87;73.13
76205;BME280;64986;55.672;37.628;2023-02-28T05:06:38;99534.63;;;-7.59;73.34
76205;BME280;64986;55.672;37.628;2023-02-28T05:09:04;99534.63;;;-7.59;71.85
76205;BME280;64986;55.672;37.628;2023-02-28T05:11:32;99543.56;;;-7.66;71.32
76205;BME280;64986;55.672;37.628;2023-02-28T05:14:05;99542.72;;;-7.66;71.79
76205;BME280;64986;55.672;37.628;2023-02-28T05:16:32;99550.19;;;-7.47;70.95
76205;BME280;64986;55.672;37.628;2023-02-28T05:18:58;99525.13;;;-7.57;71.71
76205;BME280;64986;55.672;37.628;2023-02-28T05:21:27;99527.31;;;-7.50;71.44
76205;BME280;64986;55.672;37.628;2023-02-28T05:23:54;99505.88;;;-7.62;69.50
76205;BME280;64986;55.672;37.628;2023-02-28T05:26:21;99497.75;;;-7.55;69.31
76205;BME280;64986;55.672;37.628;2023-02-28T05:28:46;99504.97;;;-7.47;69.20
76205;BME280;64986;55.672;37.628;2023-02-28T05:31:12;99494.34;;;-6.98;69.00
76205;BME280;64986;55.672;37.628;2023-02-28T05:33:38;99499.44;;;-6.84;67.71
76205;BME280;64986;55.672;37.628;2023-02-28T05:36:05;99485.97;;;-7.29;67.89
76205;BME280;64986;55.672;37.628;2023-02-28T05:38:31;99472.34;;;-7.01;67.86
76205;BME280;64986;55.672;37.628;2023-02-28T05:40:56;99465.06;;;-7.21;68.53
76205;BME280;64986;55.672;37.628;2023-02-28T05:43:22;99463.56;;;-6.96;69.03
76205;BME280;64986;55.672;37.628;2023-02-28T05:45:48;99460.28;;;-7.13;67.65
76205;BME280;64986;55.672;37.628;2023-02-28T05:48:13;99448.78;;;-7.06;68.14
76205;BME280;64986;55.672;37.628;2023-02-28T05:50:38;99449.13;;;-6.97;67.25
76205;BME280;64986;55.672;37.628;2023-02-28T05:53:05;99468.28;;;-6.90;67.36
76205;BME280;64986;55.672;37.628;2023-02-28T05:55:30;99419.56;;;-7.02;66.74
76205;BME280;64986;55.672;37.628;2023-02-28T05:57:56;99419.84;;;-6.79;66.90
76205;BME280;64986;55.672;37.628;2023-02-28T06:00:21;99443.44;;;-6.88;66.91
76205;BME280;64986;55.672;37.628;2023-02-28T06:02:47;99432.66;;;-6.79;66.70
76205;BME280;64986;55.672;37.628;2023-02-28T06:05:17;65559.31;;;-144.76;100.00
76205;BME280;64986;55.672;37.628;2023-02-28T06:07:44;99432.66;;;-6.79;66.70
76205;BME280;64986;55.672;37.628;2023-02-28T06:10:13;99400.31;;;-6.67;65.71
76205;BME280;64986;55.672;37.628;2023-02-28T06:12:39;99421.00;;;-6.71;65.25
76205;BME280;64986;55.672;37.628;2023-02-28T06:15:07;99396.28;;;-6.57;66.13
76205;BME280;64986;55.672;37.628;2023-02-28T06:17:33;99389.19;;;-6.54;66.05
76205;BME280;64986;55.672;37.628;2023-02-28T06:19:58;99375.09;;;-6.47;65.82
76205;BME280;64986;55.672;37.628;2023-02-28T06:22:24;99390.84;;;-6.53;65.14
76205;BME280;64986;55.672;37.628;2023-02-28T06:24:50;99368.44;;;-6.49;64.85
76205;BME280;64986;55.672;37.628;2023-02-28T06:27:15;99368.16;;;-6.19;64.83
76205;BME280;64986;55.672;37.628;2023-02-28T06:29:41;99352.56;;;-6.16;64.92
76205;BME280;64986;55.672;37.628;2023-02-28T06:32:06;99354.81;;;-6.50;64.51
76205;BME280;64986;55.672;37.628;2023-02-28T06:34:32;99361.88;;;-6.40;64.24
76205;BME280;64986;55.672;37.628;2023-02-28T06:36:59;99355.16;;;-6.03;64.45
76205;BME280;64986;55.672;37.628;2023-02-28T06:39:30;99344.53;;;-5.86;63.76
76205;BME280;64986;55.672;37.628;2023-02-28T06:41:56;99339.41;;;-5.73;63.85
76205;BME280;64986;55.672;37.628;2023-02-28T06:44:22;99362.38;;;-5.72;62.73
76205;BME280;64986;55.672;37.628;2023-02-28T06:46:48;99362.44;;;-5.24;62.81
76205;BME280;64986;55.672;37.628;2023-02-28T06:49:14;99357.56;;;-5.27;62.36
76205;BME280;64986;55.672;37.628;2023-02-28T06:51:42;99341.09;;;-5.24;62.65
76205;BME280;64986;55.672;37.628;2023-02-28T06:54:10;99341.09;;;-5.24;62.65
76205;BME280;64986;55.672;37.628;2023-02-28T06:56:36;99323.22;;;-5.13;60.05
76205;BME280;64986;55.672;37.628;2023-02-28T06:59:02;99299.50;;;-4.93;61.08
76205;BME280;64986;55.672;37.628;2023-02-28T07:01:29;99303.19;;;-4.73;61.08
76205;BME280;64986;55.672;37.628;2023-02-28T07:03:54;99291.41;;;-4.76;61.06
76205;BME280;64986;55.672;37.628;2023-02-28T07:06:24;99296.59;;;-4.42;60.88
76205;BME280;64986;55.672;37.628;2023-02-28T07:08:51;99269.88;;;-4.28;60.65
76205;BME280;64986;55.672;37.628;2023-02-28T07:11:19;99283.47;;;-4.72;60.80
76205;BME280;64986;55.672;37.628;2023-02-28T07:13:44;99253.41;;;-4.37;60.74
76205;BME280;64986;55.672;37.628;2023-02-28T07:16:11;65559.31;;;-144.76;100.00
76205;BME280;64986;55.672;37.628;2023-02-28T07:18:37;65559.31;;;-144.76;100.00
76205;BME280;64986;55.672;37.628;2023-02-28T07:21:05;65559.31;;;-144.76;100.00
76205;BME280;64986;55.672;37.628;2023-02-28T07:23:31;65559.31;;;-144.76;100.00
76205;BME280;64986;55.672;37.628;2023-02-28T07:25:57;65559.31;;;-144.76;100.00
76205;BME280;64986;55.672;37.628;2023-02-28T07:28:22;65559.31;;;-144.76;100.00
76205;BME280;64986;55.672;37.628;2023-02-28T07:30:48;65559.31;;;-144.76;100.00
76205;BME280;64986;55.672;37.628;2023-02-28T07:33:14;65559.31;;;-144.76;100.00
76205;BME280;64986;55.672;37.628;2023-02-28T07:35:39;65559.31;;;-144.76;100.00
76205;BME280;64986;55.672;37.628;2023-02-28T07:38:05;65559.31;;;-144.76;100.00
76205;BME280;64986;55.672;37.628;2023-02-28T07:40:33;65559.31;;;-144.76;100.00
76205;BME280;64986;55.672;37.628;2023-02-28T07:43:02;65559.31;;;-144.76;100.00
76205;BME280;64986;55.672;37.628;2023-02-28T07:45:29;65559.31;;;-144.76;100.00
76205;BME280;64986;55.672;37.628;2023-02-28T07:47:55;65559.31;;;-144.76;100.00
76205;BME280;64986;55.672;37.628;2023-02-28T07:50:21;65559.31;;;-144.76;100.00
76205;BME280;64986;55.672;37.628;2023-02-28T07:52:47;65559.31;;;-144.76;100.00
76205;BME280;64986;55.672;37.628;2023-02-28T07:55:12;65559.31;;;-144.76;100.00
76205;BME280;64986;55.672;37.628;2023-02-28T07:57:39;65559.31;;;-144.76;100.00
76205;BME280;64986;55.672;37.628;2023-02-28T08:00:07;65559.31;;;-144.76;100.00
76205;BME280;64986;55.672;37.628;2023-02-28T08:02:35;65559.31;;;-144.76;100.00
76205;BME280;64986;55.672;37.628;2023-02-28T08:05:01;65559.31;;;-144.76;100.00
76205;BME280;64986;55.672;37.628;2023-02-28T08:07:26;65559.31;;;-144.76;100.00
76205;BME280;64986;55.672;37.628;2023-02-28T08:09:52;65559.31;;;-144.76;100.00
76205;BME280;64986;55.672;37.628;2023-02-28T08:12:17;65559.31;;;-144.76;100.00
76205;BME280;64986;55.672;37.628;2023-02-28T08:14:43;65559.31;;;-144.76;100.00
76205;BME280;64986;55.672;37.628;2023-02-28T08:17:10;65559.31;;;-144.76;100.00
76205;BME280;64986;55.672;37.628;2023-02-28T08:19:36;65559.31;;;-144.76;100.00
76205;BME280;64986;55.672;37.628;2023-02-28T08:22:01;65559.31;;;-144.76;100.00
76205;BME280;64986;55.672;37.628;2023-02-28T08:24:28;65559.31;;;-144.76;100.00
76205;BME280;64986;55.672;37.628;2023-02-28T08:26:53;65559.31;;;-144.76;100.00
76205;BME280;64986;55.672;37.628;2023-02-28T08:29:19;65559.31;;;-144.76;100.00
76205;BME280;64986;55.672;37.628;2023-02-28T08:31:44;65559.31;;;-144.76;100.00
76205;BME280;64986;55.672;37.628;2023-02-28T08:34:13;65559.31;;;-144.76;100.00
76205;BME280;64986;55.672;37.628;2023-02-28T08:36:39;65559.31;;;-144.76;100.00
76205;BME280;64986;55.672;37.628;2023-02-28T08:39:06;65559.31;;;-144.76;100.00
76205;BME280;64986;55.672;37.628;2023-02-28T08:41:32;65559.31;;;-144.76;100.00
76205;BME280;64986;55.672;37.628;2023-02-28T08:43:57;65559.31;;;-144.76;100.00
76205;BME280;64986;55.672;37.628;2023-02-28T08:46:23;65559.31;;;-144.76;100.00
76205;BME280;64986;55.672;37.628;2023-02-28T08:48:52;65559.31;;;-144.76;100.00
76205;BME280;64986;55.672;37.628;2023-02-28T08:51:19;65559.31;;;-144.76;100.00
76205;BME280;64986;55.672;37.628;2023-02-28T08:53:47;65559.31;;;-144.76;100.00
76205;BME280;64986;55.672;37.628;2023-02-28T08:56:15;65559.31;;;-144.76;100.00
76205;BME280;64986;55.672;37.628;2023-02-28T08:58:42;65559.31;;;-144.76;100.00
76205;BME280;64986;55.672;37.628;2023-02-28T09:01:19;65559.31;;;-144.76;100.00
76205;BME280;64986;55.672;37.628;2023-02-28T09:03:47;65559.31;;;-144.76;100.00
76205;BME280;64986;55.672;37.628;2023-02-28T09:06:14;65559.31;;;-144.76;100.00
76205;BME280;64986;55.672;37.628;2023-02-28T09:08:40;65559.31;;;-144.76;100.00
76205;BME280;64986;55.672;37.628;2023-02-28T09:11:06;65559.31;;;-144.76;100.00
76205;BME280;64986;55.672;37.628;2023-02-28T09:13:33;65559.31;;;-144.76;100.00
76205;BME280;64986;55.672;37.628;2023-02-28T09:16:03;65559.31;;;-144.76;100.00
76205;BME280;64986;55.672;37.628;2023-02-28T09:18:29;65559.31;;;-144.76;100.00
76205;BME280;64986;55.672;37.628;2023-02-28T09:20:55;65559.31;;;-144.76;100.00
76205;BME280;64986;55.672;37.628;2023-02-28T09:23:21;65559.31;;;-144.76;100.00
76205;BME280;64986;55.672;37.628;2023-02-28T09:25:51;65559.31;;;-144.76;100.00
76205;BME280;64986;55.672;37.628;2023-02-28T09:28:17;65559.31;;;-144.76;100.00
76205;BME280;64986;55.672;37.628;2023-02-28T09:30:48;65559.31;;;-144.76;100.00
76205;BME280;64986;55.672;37.628;2023-02-28T09:33:14;65559.31;;;-144.76;100.00
76205;BME280;64986;55.672;37.628;2023-02-28T09:35:41;65559.31;;;-144.76;100.00
76205;BME280;64986;55.672;37.628;2023-02-28T09:38:08;65559.31;;;-144.76;100.00
76205;BME280;64986;55.672;37.628;2023-02-28T09:40:46;65559.31;;;-144.76;100.00
76205;BME280;64986;55.672;37.628;2023-02-28T09:43:14;65559.31;;;-144.76;100.00
76205;BME280;64986;55.672;37.628;2023-02-28T09:45:42;65559.31;;;-144.76;100.00
76205;BME280;64986;55.672;37.628;2023-02-28T09:48:20;65559.31;;;-144.76;100.00
76205;BME280;64986;55.672;37.628;2023-02-28T09:50:51;65559.31;;;-144.76;100.00
76205;BME280;64986;55.672;37.628;2023-02-28T09:53:30;65559.31;;;-144.76;100.00
76205;BME280;64986;55.672;37.628;2023-02-28T09:56:09;65559.31;;;-144.76;100.00
76205;BME280;64986;55.672;37.628;2023-02-28T10:01:52;65559.31;;;-144.76;100.00
76205;BME280;64986;55.672;37.628;2023-02-28T10:06:49;65559.31;;;-144.76;100.00
76205;BME280;64986;55.672;37.628;2023-02-28T10:09:22;65559.31;;;-144.76;100.00
76205;BME280;64986;55.672;37.628;2023-02-28T10:11:54;65559.31;;;-144.76;100.00
76205;BME280;64986;55.672;37.628;2023-02-28T10:14:25;65559.31;;;-144.76;100.00
76205;BME280;64986;55.672;37.628;2023-02-28T10:16:55;65559.31;;;-144.76;100.00
76205;BME280;64986;55.672;37.628;2023-02-28T10:19:33;65559.31;;;-144.76;100.00
76205;BME280;64986;55.672;37.628;2023-02-28T10:22:03;65559.31;;;-144.76;100.00
76205;BME280;64986;55.672;37.628;2023-02-28T10:24:38;65559.31;;;-144.76;100.00
76205;BME280;64986;55.672;37.628;2023-02-28T10:27:26;65559.31;;;-144.76;100.00
76205;BME280;64986;55.672;37.628;2023-02-28T10:29:59;65559.31;;;-144.76;100.00
76205;BME280;64986;55.672;37.628;2023-02-28T10:32:32;65559.31;;;-144.76;100.00
76205;BME280;64986;55.672;37.628;2023-02-28T10:35:18;65559.31;;;-144.76;100.00
76205;BME280;64986;55.672;37.628;2023-02-28T10:37:50;65559.31;;;-144.76;100.00
76205;BME280;64986;55.672;37.628;2023-02-28T10:42:59;65559.31;;;-144.76;100.00
76205;BME280;64986;55.672;37.628;2023-02-28T10:45:26;65559.31;;;-144.76;100.00
76205;BME280;64986;55.672;37.628;2023-02-28T10:47:58;65559.31;;;-144.76;100.00
76205;BME280;64986;55.672;37.628;2023-02-28T10:53:28;65559.31;;;-144.76;100.00
76205;BME280;64986;55.672;37.628;2023-02-28T10:58:54;65559.31;;;-144.76;100.00
76205;BME280;64986;55.672;37.628;2023-02-28T11:01:23;65559.31;;;-144.76;100.00
76205;BME280;64986;55.672;37.628;2023-02-28T11:03:50;65559.31;;;-144.76;100.00
76205;BME280;64986;55.672;37.628;2023-02-28T11:06:20;65559.31;;;-144.76;100.00
76205;BME280;64986;55.672;37.628;2023-02-28T11:08:51;65559.31;;;-144.76;100.00
76205;BME280;64986;55.672;37.628;2023-02-28T11:11:18;65559.31;;;-144.76;100.00
76205;BME280;64986;55.672;37.628;2023-02-28T11:13:46;65559.31;;;-144.76;100.00
76205;BME280;64986;55.672;37.628;2023-02-28T11:16:13;65559.31;;;-144.76;100.00
76205;BME280;64986;55.672;37.628;2023-02-28T11:18:58;65559.31;;;-144.76;100.00
76205;BME280;64986;55.672;37.628;2023-02-28T11:21:34;65559.31;;;-144.76;100.00
76205;BME280;64986;55.672;37.628;2023-02-28T11:24:31;65559.31;;;-144.76;100.00
76205;BME280;64986;55.672;37.628;2023-02-28T11:26:59;65559.31;;;-144.76;100.00
76205;BME280;64986;55.672;37.628;2023-02-28T11:29:30;65559.31;;;-144.76;100.00
76205;BME280;64986;55.672;37.628;2023-02-28T11:34:36;65559.31;;;-144.76;100.00
76205;BME280;64986;55.672;37.628;2023-02-28T11:37:04;65559.31;;;-144.76;100.00
76205;BME280;64986;55.672;37.628;2023-02-28T11:39:32;65559.31;;;-144.76;100.00
76205;BME280;64986;55.672;37.628;2023-02-28T11:44:58;65559.31;;;-144.76;100.00
76205;BME280;64986;55.672;37.628;2023-02-28T11:47:52;65559.31;;;-144.76;100.00
76205;BME280;64986;55.672;37.628;2023-02-28T11:56:36;65559.31;;;-144.76;100.00
76205;BME280;64986;55.672;37.628;2023-02-28T11:59:27;65559.31;;;-144.76;100.00
76205;BME280;64986;55.672;37.628;2023-02-28T12:07:39;65559.31;;;-144.76;100.00
76205;BME280;64986;55.672;37.628;2023-02-28T12:10:21;65559.31;;;-144.76;100.00
76205;BME280;64986;55.672;37.628;2023-02-28T12:13:03;65559.31;;;-144.76;100.00
76205;BME280;64986;55.672;37.628;2023-02-28T12:21:26;65559.31;;;-144.76;100.00
76205;BME280;64986;55.672;37.628;2023-02-28T12:26:42;65559.31;;;-144.76;100.00
76205;BME280;64986;55.672;37.628;2023-02-28T12:29:24;65559.31;;;-144.76;100.00
76205;BME280;64986;55.672;37.628;2023-02-28T12:31:55;65559.31;;;-144.76;100.00
76205;BME280;64986;55.672;37.628;2023-02-28T12:34:39;65559.31;;;-144.76;100.00
76205;BME280;64986;55.672;37.628;2023-02-28T12:37:25;65559.31;;;-144.76;100.00
76205;BME280;64986;55.672;37.628;2023-02-28T12:40:01;65559.31;;;-144.76;100.00
76205;BME280;64986;55.672;37.628;2023-02-28T12:42:42;65559.31;;;-144.76;100.00
76205;BME280;64986;55.672;37.628;2023-02-28T12:47:42;65559.31;;;-144.76;100.00
76205;BME280;64986;55.672;37.628;2023-02-28T12:50:10;65559.31;;;-144.76;100.00
76205;BME280;64986;55.672;37.628;2023-02-28T12:55:27;65559.31;;;-144.76;100.00
76205;BME280;64986;55.672;37.628;2023-02-28T13:00:32;65559.31;;;-144.76;100.00
76205;BME280;64986;55.672;37.628;2023-02-28T13:11:03;65559.31;;;-144.76;100.00
76205;BME280;64986;55.672;37.628;2023-02-28T13:13:30;65559.31;;;-144.76;100.00
76205;BME280;64986;55.672;37.628;2023-02-28T13:16:02;65559.31;;;-144.76;100.00
76205;BME280;64986;55.672;37.628;2023-02-28T13:18:32;65559.31;;;-144.76;100.00
76205;BME280;64986;55.672;37.628;2023-02-28T13:20:59;65559.31;;;-144.76;100.00
76205;BME280;64986;55.672;37.628;2023-02-28T13:26:07;65559.31;;;-144.76;100.00
76205;BME280;64986;55.672;37.628;2023-02-28T13:34:27;65559.31;;;-144.76;100.00
76205;BME280;64986;55.672;37.628;2023-02-28T13:39:48;65559.31;;;-144.76;100.00
76205;BME280;64986;55.672;37.628;2023-02-28T13:42:34;65559.31;;;-144.76;100.00
76205;BME280;64986;55.672;37.628;2023-02-28T13:47:39;65559.31;;;-144.76;100.00
76205;BME280;64986;55.672;37.628;2023-02-28T13:58:39;65559.31;;;-144.76;100.00
76205;BME280;64986;55.672;37.628;2023-02-28T14:06:36;65559.31;;;-144.76;100.00
76205;BME280;64986;55.672;37.628;2023-02-28T14:10:03;65559.31;;;-144.76;100.00
76205;BME280;64986;55.672;37.628;2023-02-28T14:18:28;65559.31;;;-144.76;100.00
76205;BME280;64986;55.672;37.628;2023-02-28T14:21:01;65559.31;;;-144.76;100.00
76205;BME280;64986;55.672;37.628;2023-02-28T14:23:36;65559.31;;;-144.76;100.00
76205;BME280;64986;55.672;37.628;2023-02-28T14:26:17;65559.31;;;-144.76;100.00
76205;BME280;64986;55.672;37.628;2023-02-28T14:32:02;65559.31;;;-144.76;100.00
76205;BME280;64986;55.672;37.628;2023-02-28T14:34:36;65559.31;;;-144.76;100.00
76205;BME280;64986;55.672;37.628;2023-02-28T14:37:04;65559.31;;;-144.76;100.00
76205;BME280;64986;55.672;37.628;2023-02-28T14:39:31;65559.31;;;-144.76;100.00
76205;BME280;64986;55.672;37.628;2023-02-28T14:41:58;65559.31;;;-144.76;100.00
76205;BME280;64986;55.672;37.628;2023-02-28T14:44:30;65559.31;;;-144.76;100.00
76205;BME280;64986;55.672;37.628;2023-02-28T14:46:59;65559.31;;;-144.76;100.00
76205;BME280;64986;55.672;37.628;2023-02-28T14:49:32;65559.31;;;-144.76;100.00
76205;BME280;64986;55.672;37.628;2023-02-28T14:54:31;65559.31;;;-144.76;100.00
76205;BME280;64986;55.672;37.628;2023-02-28T14:56:57;65559.31;;;-144.76;100.00